Time;durP1;ratioP1;P1;durP2;ratioP2;P2;SDS_P1;SDS_P2;PMS_P1;PMS_P2;Temp;Humidity;BMP_temperature;BMP_pressure;BME280_temperature;BME280_humidity;BME280_pressure;Samples;Min_cycle;Max_cycle;Signal;HPM_P1;HPM_P2
2023/08/21 00:00:25;;;;;;;9.23;8.40;;;23.00;99.90;;;;;;5050709;28;20197;-55
2023/08/21 00:02:52;;;;;;;9.67;8.90;;;23.00;99.90;;;;;;5051317;28;20264;-55
2023/08/21 00:05:20;;;;;;;9.07;8.37;;;23.00;99.90;;;;;;5050720;28;20303;-55
2023/08/21 00:07:50;;;;;;;9.93;9.10;;;23.00;99.90;;;;;;5050983;28;20638;-55
2023/08/21 00:10:18;;;;;;;7.60;7.10;;;23.00;99.90;;;;;;5049759;28;20202;-55
2023/08/21 00:12:45;;;;;;;8.07;7.47;;;23.00;99.90;;;;;;5051302;28;20198;-55
2023/08/21 00:15:14;;;;;;;8.17;7.67;;;23.00;99.90;;;;;;5051453;28;20240;-55
2023/08/21 00:17:42;;;;;;;9.20;8.43;;;23.00;99.90;;;;;;5049399;28;20290;-55
2023/08/21 00:20:11;;;;;;;8.50;8.00;;;23.00;99.90;;;;;;5047573;28;20552;-55
2023/08/21 00:22:38;;;;;;;9.00;8.20;;;23.00;99.90;;;;;;5051065;28;20690;-55
2023/08/21 00:25:06;;;;;;;10.07;7.93;;;23.00;99.90;;;;;;5050250;28;20466;-55
2023/08/21 00:27:34;;;;;;;8.93;8.13;;;23.00;99.90;;;;;;5050765;28;20313;-55
2023/08/21 00:30:02;;;;;;;8.63;8.10;;;23.10;99.90;;;;;;5050604;28;20217;-55
2023/08/21 00:32:31;;;;;;;8.53;7.80;;;23.20;99.90;;;;;;5050758;28;20205;-55
2023/08/21 00:34:59;;;;;;;8.13;7.40;;;23.20;99.90;;;;;;5049700;28;20676;-55
2023/08/21 00:37:26;;;;;;;8.23;7.53;;;23.20;99.90;;;;;;5050630;28;20245;-57
2023/08/21 00:39:53;;;;;;;7.63;7.23;;;23.10;99.90;;;;;;5050532;28;20248;-57
2023/08/21 00:42:20;;;;;;;8.10;7.30;;;23.00;99.90;;;;;;5050516;28;20247;-59
2023/08/21 00:44:48;;;;;;;8.83;8.20;;;23.00;99.90;;;;;;5050594;28;20232;-57
2023/08/21 00:47:15;;;;;;;9.17;8.37;;;23.00;99.90;;;;;;5050691;28;20237;-57
2023/08/21 00:49:44;;;;;;;7.73;7.33;;;22.90;99.90;;;;;;5049799;28;20722;-60
2023/08/21 00:52:13;;;;;;;8.43;7.83;;;22.90;99.90;;;;;;5049615;28;20201;-57
2023/08/21 00:54:40;;;;;;;7.93;7.43;;;22.90;99.90;;;;;;5050491;28;20686;-57
2023/08/21 00:57:08;;;;;;;8.97;8.07;;;22.80;99.90;;;;;;5050715;28;20307;-57
2023/08/21 00:59:36;;;;;;;9.20;8.37;;;22.80;99.90;;;;;;5049585;28;20266;-57
2023/08/21 01:02:05;;;;;;;9.23;8.30;;;22.70;99.90;;;;;;5050245;28;20255;-59
2023/08/21 01:04:33;;;;;;;8.30;7.60;;;22.70;99.90;;;;;;5049621;28;20699;-57
2023/08/21 01:07:02;;;;;;;8.30;7.50;;;22.70;99.90;;;;;;5047911;28;20312;-57
2023/08/21 01:09:35;;;;;;;8.67;7.97;;;22.60;99.90;;;;;;5049867;28;20206;-57
2023/08/21 01:12:13;;;;;;;8.17;7.67;;;22.60;99.90;;;;;;5050469;28;20248;-57
2023/08/21 01:14:49;;;;;;;11.17;8.03;;;22.60;99.90;;;;;;5050728;28;20284;-55
2023/08/21 01:17:19;;;;;;;9.40;8.70;;;22.50;99.90;;;;;;5050590;28;20537;-55
2023/08/21 01:19:49;;;;;;;7.70;7.17;;;22.50;99.90;;;;;;5050426;28;20216;-55
2023/08/21 01:22:18;;;;;;;7.90;7.37;;;22.50;99.90;;;;;;5046210;28;20593;-55
2023/08/21 01:24:47;;;;;;;9.20;7.60;;;22.50;99.90;;;;;;5049563;28;20279;-56
2023/08/21 01:27:16;;;;;;;8.80;7.83;;;22.50;99.90;;;;;;5050143;28;20283;-55
2023/08/21 01:29:43;;;;;;;8.47;8.03;;;22.40;99.90;;;;;;5047905;28;20582;-56
2023/08/21 01:32:28;;;;;;;8.53;8.07;;;22.40;99.90;;;;;;5048949;28;20206;-55
2023/08/21 01:34:57;;;;;;;8.67;8.07;;;22.40;99.90;;;;;;5044943;28;20267;-55
2023/08/21 01:37:25;;;;;;;9.83;9.00;;;22.30;99.90;;;;;;5049653;28;20221;-55
2023/08/21 01:39:54;;;;;;;8.93;8.37;;;22.30;99.90;;;;;;5050023;28;20254;-56
2023/08/21 01:42:21;;;;;;;8.60;7.70;;;22.30;99.90;;;;;;5048774;28;20228;-56
2023/08/21 01:44:48;;;;;;;8.47;7.70;;;22.30;99.90;;;;;;5049960;28;20218;-55
2023/08/21 01:47:16;;;;;;;8.10;7.57;;;22.30;99.90;;;;;;5046280;28;22113;-57
2023/08/21 01:49:43;;;;;;;10.07;9.07;;;22.30;99.90;;;;;;5053898;28;20201;-55
2023/08/21 01:52:10;;;;;;;8.37;7.70;;;22.20;99.90;;;;;;5053717;28;20209;-55
2023/08/21 01:54:37;;;;;;;11.20;10.17;;;22.20;99.90;;;;;;5052948;28;20255;-55
2023/08/21 01:57:05;;;;;;;8.60;8.00;;;22.20;99.90;;;;;;5053900;28;20225;-57
2023/08/21 01:59:32;;;;;;;7.90;7.33;;;22.20;99.90;;;;;;5052711;28;20275;-55
2023/08/21 02:01:59;;;;;;;8.30;7.60;;;22.20;99.90;;;;;;5053581;28;20324;-57
2023/08/21 02:04:26;;;;;;;9.20;8.30;;;22.10;99.90;;;;;;5053504;28;20267;-55
2023/08/21 02:06:54;;;;;;;9.63;8.83;;;22.10;99.90;;;;;;5052634;28;20221;-55
2023/08/21 02:09:21;;;;;;;9.83;9.13;;;22.10;99.90;;;;;;5078294;22;20538;-54
2023/08/21 02:11:48;;;;;;;9.17;8.23;;;22.10;99.90;;;;;;5054588;28;20667;-55
2023/08/21 02:14:16;;;;;;;8.53;8.03;;;22.10;99.90;;;;;;5055441;28;20198;-55
2023/08/21 02:16:43;;;;;;;9.27;8.50;;;22.10;99.90;;;;;;5051067;28;20614;-55
2023/08/21 02:19:10;;;;;;;8.43;7.83;;;22.00;99.90;;;;;;5053292;28;20206;-54
2023/08/21 02:21:37;;;;;;;9.60;8.70;;;22.00;99.90;;;;;;5054111;28;20201;-55
2023/08/21 02:24:05;;;;;;;10.00;9.10;;;22.00;99.90;;;;;;5051964;28;20210;-55
2023/08/21 02:26:31;;;;;;;8.97;8.47;;;22.00;99.90;;;;;;5054282;28;20201;-54
2023/08/21 02:28:58;;;;;;;9.60;8.70;;;22.00;99.90;;;;;;5052524;28;20204;-54
2023/08/21 02:31:27;;;;;;;9.47;8.73;;;22.00;99.90;;;;;;5054325;28;20288;-55
2023/08/21 02:33:54;;;;;;;8.97;8.30;;;21.90;99.90;;;;;;5054151;28;20202;-55
2023/08/21 02:36:21;;;;;;;9.47;8.70;;;21.90;99.90;;;;;;5054297;28;20202;-55
2023/08/21 02:38:48;;;;;;;8.93;8.33;;;21.90;99.90;;;;;;5054244;28;20205;-55
2023/08/21 02:41:15;;;;;;;9.30;8.40;;;21.90;99.90;;;;;;5052859;28;20662;-54
2023/08/21 02:43:41;;;;;;;9.00;8.07;;;21.90;99.90;;;;;;5052862;28;20194;-54
2023/08/21 02:46:08;;;;;;;10.10;9.10;;;21.80;99.90;;;;;;5045838;28;20678;-54
2023/08/21 02:48:37;;;;;;;9.13;8.43;;;21.80;99.90;;;;;;5054136;28;20259;-54
2023/08/21 02:51:04;;;;;;;9.83;8.93;;;21.80;99.90;;;;;;5053970;28;20226;-54
2023/08/21 02:53:30;;;;;;;10.40;9.43;;;21.70;99.90;;;;;;5050915;28;20271;-55
2023/08/21 02:55:57;;;;;;;10.40;9.60;;;21.70;99.90;;;;;;5052811;28;20199;-55
2023/08/21 02:58:24;;;;;;;8.87;8.17;;;21.70;99.90;;;;;;5053398;28;20202;-55
2023/08/21 03:00:51;;;;;;;11.03;9.50;;;21.70;99.90;;;;;;5052896;28;20218;-54
2023/08/21 03:03:18;;;;;;;9.17;8.47;;;21.70;99.90;;;;;;5053540;28;20197;-54
2023/08/21 03:05:46;;;;;;;9.50;8.80;;;21.80;99.90;;;;;;5052346;28;20272;-54
2023/08/21 03:08:13;;;;;;;10.83;9.93;;;21.70;99.90;;;;;;5045241;28;20273;-53
2023/08/21 03:10:40;;;;;;;10.77;9.97;;;21.70;99.90;;;;;;5053304;28;20225;-54
2023/08/21 03:13:11;;;;;;;10.17;9.23;;;21.60;99.90;;;;;;5052178;28;20267;-55
2023/08/21 03:15:37;;;;;;;10.73;9.80;;;21.60;99.90;;;;;;5049608;28;20205;-54
2023/08/21 03:18:05;;;;;;;9.97;9.17;;;21.70;99.90;;;;;;5037232;28;20255;-54
2023/08/21 03:20:32;;;;;;;10.00;9.20;;;21.60;99.90;;;;;;5034092;28;20238;-54
2023/08/21 03:23:00;;;;;;;10.87;9.97;;;21.50;99.90;;;;;;5038295;28;20259;-55
2023/08/21 03:25:28;;;;;;;11.10;10.13;;;21.50;99.90;;;;;;5042284;28;20316;-55
2023/08/21 03:27:55;;;;;;;10.33;9.43;;;21.60;99.90;;;;;;5036849;28;20194;-55
2023/08/21 03:30:22;;;;;;;11.33;10.23;;;21.50;99.90;;;;;;5033517;28;20645;-55
2023/08/21 03:32:49;;;;;;;10.97;9.93;;;21.60;99.90;;;;;;5033266;28;20199;-55
2023/08/21 03:35:16;;;;;;;10.83;9.97;;;21.50;99.90;;;;;;5040599;28;20191;-55
2023/08/21 03:37:43;;;;;;;11.13;10.03;;;21.50;99.90;;;;;;5041173;28;20739;-55
2023/08/21 03:40:12;;;;;;;11.27;10.43;;;21.50;99.90;;;;;;5045378;28;20222;-55
2023/08/21 03:42:39;;;;;;;9.97;9.27;;;21.40;99.90;;;;;;5040433;28;20721;-54
2023/08/21 03:45:07;;;;;;;10.20;9.40;;;21.30;99.90;;;;;;5050847;28;20213;-55
2023/08/21 03:47:34;;;;;;;11.23;10.23;;;21.30;99.90;;;;;;5049847;28;20198;-55
2023/08/21 03:50:01;;;;;;;14.73;12.70;;;21.30;99.90;;;;;;5050867;28;20217;-55
2023/08/21 03:52:28;;;;;;;10.57;9.73;;;21.20;99.90;;;;;;5050735;28;20221;-55
2023/08/21 03:54:55;;;;;;;10.83;9.93;;;21.20;99.90;;;;;;5046830;28;20664;-55
2023/08/21 03:57:23;;;;;;;9.60;8.90;;;21.10;99.90;;;;;;5036759;28;20267;-54
2023/08/21 03:59:50;;;;;;;10.60;9.80;;;21.00;99.90;;;;;;5032688;28;20222;-54
2023/08/21 04:02:17;;;;;;;10.43;9.73;;;20.90;99.90;;;;;;5032065;28;20202;-54
2023/08/21 04:04:44;;;;;;;10.93;10.07;;;20.90;99.90;;;;;;5031940;28;20233;-54
2023/08/21 04:07:11;;;;;;;11.13;10.00;;;20.90;99.90;;;;;;5031823;28;20241;-55
2023/08/21 04:09:38;;;;;;;13.27;12.03;;;20.80;99.90;;;;;;5049578;28;20229;-55
2023/08/21 04:12:06;;;;;;;10.67;9.67;;;20.80;99.90;;;;;;5050342;28;20194;-55
2023/08/21 04:14:34;;;;;;;11.57;10.47;;;20.70;99.90;;;;;;5035795;28;20268;-54
2023/08/21 04:17:01;;;;;;;10.70;9.73;;;20.70;99.90;;;;;;5035935;28;20226;-55
2023/08/21 04:19:32;;;;;;;10.73;10.00;;;20.70;99.90;;;;;;5044749;28;20288;-54
2023/08/21 04:21:59;;;;;;;11.30;10.23;;;20.70;99.90;;;;;;5050152;28;20327;-55
2023/08/21 04:24:26;;;;;;;10.17;9.17;;;20.70;99.90;;;;;;5048109;28;20293;-54
2023/08/21 04:26:53;;;;;;;12.20;10.20;;;20.70;99.90;;;;;;5039972;28;20287;-55
2023/08/21 04:29:20;;;;;;;9.93;9.23;;;20.70;99.90;;;;;;5032850;28;20583;-55
2023/08/21 04:31:48;;;;;;;11.50;10.50;;;20.70;99.90;;;;;;5046045;28;20202;-55
2023/08/21 04:34:15;;;;;;;11.27;10.10;;;20.60;99.90;;;;;;5031231;28;20191;-55
2023/08/21 04:36:42;;;;;;;10.80;9.80;;;20.70;99.90;;;;;;5031361;28;20221;-55
2023/08/21 04:39:09;;;;;;;13.90;10.30;;;20.80;99.90;;;;;;5031279;28;20688;-54
2023/08/21 04:41:36;;;;;;;10.50;9.70;;;20.80;99.90;;;;;;5031375;28;20230;-53
2023/08/21 04:44:04;;;;;;;11.17;10.13;;;20.80;99.90;;;;;;5031172;28;20198;-55
2023/08/21 04:46:31;;;;;;;11.00;10.13;;;20.80;99.90;;;;;;5032903;28;20226;-54
2023/08/21 04:48:59;;;;;;;13.13;11.83;;;20.80;99.90;;;;;;5035238;28;20217;-53
2023/08/21 04:51:26;;;;;;;11.50;10.43;;;20.80;99.90;;;;;;5031368;28;20207;-53
2023/08/21 04:53:53;;;;;;;11.60;10.50;;;20.80;99.90;;;;;;5031148;28;20194;-53
2023/08/21 04:56:20;;;;;;;11.90;10.63;;;20.90;99.90;;;;;;5031065;28;20195;-53
2023/08/21 04:58:47;;;;;;;12.27;11.27;;;20.90;99.90;;;;;;5031145;28;20195;-53
2023/08/21 05:01:14;;;;;;;12.37;11.27;;;21.00;99.90;;;;;;5030826;28;20246;-53
2023/08/21 05:03:42;;;;;;;11.03;10.03;;;21.00;99.90;;;;;;5032035;28;20199;-53
2023/08/21 05:06:10;;;;;;;10.50;9.50;;;21.10;99.90;;;;;;5034365;28;20221;-53
2023/08/21 05:08:37;;;;;;;14.20;12.73;;;21.20;99.90;;;;;;5032415;28;20198;-53
2023/08/21 05:11:04;;;;;;;12.50;11.20;;;21.20;99.90;;;;;;5030741;28;20218;-53
2023/08/21 05:13:31;;;;;;;13.43;12.23;;;21.30;99.90;;;;;;5030504;28;20194;-53
2023/08/21 05:15:59;;;;;;;13.47;12.00;;;21.40;99.90;;;;;;5030743;28;20276;-53
2023/08/21 05:18:28;;;;;;;12.97;11.80;;;21.50;99.90;;;;;;5030824;28;20199;-53
2023/08/21 05:20:56;;;;;;;12.87;11.63;;;21.50;99.90;;;;;;5036544;28;20301;-53
2023/08/21 05:23:25;;;;;;;12.47;11.23;;;21.70;99.90;;;;;;5044308;28;20194;-53
2023/08/21 05:25:52;;;;;;;13.67;12.30;;;22.10;99.90;;;;;;5033269;28;20272;-53
2023/08/21 05:28:19;;;;;;;12.80;11.57;;;22.90;99.90;;;;;;5030914;28;20249;-53
2023/08/21 05:30:48;;;;;;;14.30;10.43;;;23.80;99.90;;;;;;5032273;28;20778;-53
2023/08/21 05:33:15;;;;;;;10.80;9.70;;;24.60;99.90;;;;;;5030651;28;20279;-53
2023/08/21 05:35:42;;;;;;;11.90;11.10;;;25.40;99.90;;;;;;5034625;28;20193;-54
2023/08/21 05:38:10;;;;;;;11.87;10.57;;;26.10;99.90;;;;;;5040358;28;20205;-54
2023/08/21 05:40:41;;;;;;;12.57;11.27;;;26.90;99.90;;;;;;5036956;28;20232;-54
2023/08/21 05:43:09;;;;;;;11.47;10.33;;;27.40;99.90;;;;;;5030269;28;20244;-53
2023/08/21 05:45:36;;;;;;;14.45;10.60;;;27.90;99.90;;;;;;5036931;28;20704;-53
2023/08/21 05:48:04;;;;;;;10.02;9.23;;;28.30;99.90;;;;;;5030183;28;20202;-54
2023/08/21 05:50:31;;;;;;;10.73;9.88;;;28.70;99.90;;;;;;5030308;28;20292;-54
2023/08/21 05:52:58;;;;;;;11.73;10.50;;;29.10;99.90;;;;;;5033682;28;20277;-55
2023/08/21 05:55:25;;;;;;;12.43;8.68;;;29.50;99.90;;;;;;5032215;28;20186;-55
2023/08/21 05:57:53;;;;;;;8.77;8.23;;;29.90;99.90;;;;;;5034237;28;20630;-55
2023/08/21 06:00:21;;;;;;;9.10;8.30;;;30.30;99.90;;;;;;5030222;28;20296;-55
2023/08/21 06:02:48;;;;;;;8.77;8.00;;;30.70;99.90;;;;;;5030743;28;20245;-55
2023/08/21 06:05:15;;;;;;;9.38;8.50;;;30.90;99.90;;;;;;5030227;28;20268;-55
2023/08/21 06:07:42;;;;;;;9.10;8.38;;;31.20;99.90;;;;;;5029911;28;20557;-54
2023/08/21 06:10:12;;;;;;;8.98;8.38;;;31.30;99.90;;;;;;5039067;28;20222;-54
2023/08/21 06:12:39;;;;;;;8.80;8.00;;;31.70;99.90;;;;;;5038772;28;20253;-54
2023/08/21 06:15:09;;;;;;;9.13;7.75;;;31.80;99.90;;;;;;5044348;28;20202;-54
2023/08/21 06:17:36;;;;;;;10.50;8.52;;;31.50;99.90;;;;;;5046029;28;20260;-54
2023/08/21 06:20:05;;;;;;;7.82;7.32;;;30.90;99.90;;;;;;5037247;28;20704;-54
2023/08/21 06:22:32;;;;;;;9.70;8.30;;;31.10;99.90;;;;;;5039547;28;20234;-54
2023/08/21 06:24:59;;;;;;;7.18;6.72;;;31.80;99.90;;;;;;5034655;28;20194;-54
2023/08/21 06:27:26;;;;;;;10.52;8.18;;;32.50;99.90;;;;;;5033363;28;20664;-54
2023/08/21 06:29:53;;;;;;;8.73;7.55;;;33.00;99.90;;;;;;5032465;28;20222;-54
2023/08/21 06:32:22;;;;;;;9.02;8.15;;;33.30;99.90;;;;;;5043546;28;20240;-54
2023/08/21 06:34:49;;;;;;;7.80;7.07;;;33.20;99.90;;;;;;5032872;28;20198;-54
2023/08/21 06:37:16;;;;;;;10.30;7.28;;;33.10;99.90;;;;;;5036959;28;20236;-55
2023/08/21 06:39:43;;;;;;;8.30;7.45;;;32.20;99.90;;;;;;5041222;28;20223;-55
2023/08/21 06:42:10;;;;;;;7.72;7.05;;;31.50;99.90;;;;;;5040455;28;20256;-55
2023/08/21 06:44:37;;;;;;;8.43;7.68;;;30.80;99.90;;;;;;5034855;28;20229;-55
2023/08/21 06:47:04;;;;;;;7.45;6.95;;;30.20;99.90;;;;;;5040388;28;20217;-55
2023/08/21 06:49:32;;;;;;;7.75;7.30;;;29.60;99.90;;;;;;5042682;28;20233;-54
2023/08/21 06:52:00;;;;;;;7.85;7.07;;;29.60;99.90;;;;;;5054185;28;20267;-55
2023/08/21 06:54:27;;;;;;;10.65;8.38;;;29.80;99.90;;;;;;5038620;28;20202;-55
2023/08/21 06:56:54;;;;;;;9.07;8.32;;;29.70;99.90;;;;;;5049138;28;20190;-55
2023/08/21 06:59:21;;;;;;;8.52;7.72;;;30.40;99.90;;;;;;5046954;28;20221;-55
2023/08/21 07:01:48;;;;;;;7.72;6.97;;;30.90;99.90;;;;;;5051916;28;20268;-55
2023/08/21 07:04:15;;;;;;;8.70;8.00;;;31.50;99.90;;;;;;5043662;28;20243;-55
2023/08/21 07:06:44;;;;;;;7.47;6.88;;;32.20;99.90;;;;;;5039371;28;20214;-56
2023/08/21 07:09:11;;;;;;;7.63;7.00;;;32.90;99.90;;;;;;5044724;28;20195;-54
2023/08/21 07:11:37;;;;;;;8.80;7.80;;;32.70;99.90;;;;;;5033084;28;20570;-55
2023/08/21 07:14:05;;;;;;;8.57;8.05;;;33.20;99.90;;;;;;5032742;28;20550;-56
2023/08/21 07:16:32;;;;;;;7.50;6.78;;;33.60;99.90;;;;;;5032876;28;20647;-56
2023/08/21 07:18:59;;;;;;;11.63;7.90;;;33.30;99.90;;;;;;5033455;28;20213;-54
2023/08/21 07:21:26;;;;;;;7.88;7.18;;;33.10;99.90;;;;;;5035678;28;20317;-54
2023/08/21 07:23:54;;;;;;;9.05;7.78;;;33.70;99.90;;;;;;5034143;28;20253;-55
2023/08/21 07:26:22;;;;;;;7.80;7.07;;;34.30;99.90;;;;;;5032110;28;20272;-55
2023/08/21 07:28:49;;;;;;;9.75;8.82;;;34.70;99.90;;;;;;5032957;28;20210;-56
2023/08/21 07:31:15;;;;;;;7.15;6.65;;;35.30;99.90;;;;;;5033483;28;20230;-55
2023/08/21 07:33:42;;;;;;;8.32;7.82;;;35.70;99.90;;;;;;5041075;28;20228;-56
2023/08/21 07:36:14;;;;;;;9.10;8.20;;;35.80;99.60;;;;;;5049793;28;20621;-56
2023/08/21 07:38:41;;;;;;;8.80;7.88;;;36.10;99.20;;;;;;5052205;28;20225;-55
2023/08/21 07:41:11;;;;;;;8.82;7.57;;;36.20;98.40;;;;;;5044660;28;20222;-55
2023/08/21 07:43:39;;;;;;;7.93;7.32;;;36.30;97.90;;;;;;5045426;28;20252;-55
2023/08/21 07:46:06;;;;;;;7.45;6.97;;;36.20;98.50;;;;;;5045414;28;20669;-55
2023/08/21 07:48:34;;;;;;;10.48;7.50;;;36.20;97.30;;;;;;5052084;28;20676;-56
2023/08/21 07:51:01;;;;;;;7.00;6.43;;;36.20;97.60;;;;;;5045877;28;20215;-55
2023/08/21 07:53:28;;;;;;;8.75;7.97;;;36.20;98.40;;;;;;5032690;28;20202;-55
2023/08/21 07:55:55;;;;;;;7.60;6.65;;;35.20;98.30;;;;;;5043493;28;20205;-55
2023/08/21 07:58:23;;;;;;;8.23;7.60;;;34.40;98.70;;;;;;5052893;28;20255;-55
2023/08/21 08:00:50;;;;;;;8.05;6.65;;;33.40;99.80;;;;;;5052797;28;20230;-55
2023/08/21 08:03:17;;;;;;;8.20;7.50;;;33.70;99.90;;;;;;5052414;28;20251;-54
2023/08/21 08:05:44;;;;;;;7.80;7.22;;;33.90;99.90;;;;;;5052672;28;20272;-55
2023/08/21 08:08:12;;;;;;;7.90;7.32;;;34.70;99.90;;;;;;5050226;28;20654;-55
2023/08/21 08:10:40;;;;;;;9.52;6.68;;;35.10;97.90;;;;;;5049422;28;20236;-56
2023/08/21 08:13:08;;;;;;;8.13;7.30;;;35.50;97.40;;;;;;5048944;28;20255;-55
2023/08/21 08:15:36;;;;;;;8.60;7.90;;;36.00;97.70;;;;;;5044776;28;20529;-61
2023/08/21 08:18:12;;;;;;;7.95;7.22;;;36.20;96.90;;;;;;5043803;28;20236;-60
2023/08/21 08:20:39;;;;;;;11.27;7.97;;;36.80;97.40;;;;;;5039604;28;20259;-61
2023/08/21 08:23:10;;;;;;;7.50;6.82;;;37.10;95.80;;;;;;5041357;28;20205;-61
2023/08/21 08:25:37;;;;;;;7.40;6.93;;;36.70;94.80;;;;;;5041312;28;20259;-61
2023/08/21 08:28:04;;;;;;;8.18;7.25;;;36.60;98.60;;;;;;5042655;28;20202;-61
2023/08/21 08:30:31;;;;;;;8.50;7.93;;;36.50;97.20;;;;;;5042995;28;20271;-60
2023/08/21 08:33:00;;;;;;;7.40;6.70;;;36.80;98.60;;;;;;5048521;28;20248;-59
2023/08/21 08:35:27;;;;;;;6.97;6.50;;;36.70;94.90;;;;;;5046427;28;20202;-60
2023/08/21 08:37:54;;;;;;;10.18;8.70;;;37.10;94.40;;;;;;5049858;28;20228;-60
2023/08/21 08:40:22;;;;;;;10.02;7.93;;;36.60;93.80;;;;;;5039908;28;20276;-60
2023/08/21 08:42:49;;;;;;;10.57;7.22;;;36.70;94.20;;;;;;5040868;28;20298;-60
2023/08/21 08:45:31;;;;;;;7.80;7.05;;;36.60;92.80;;;;;;5040603;28;20206;-60
2023/08/21 08:48:02;;;;;;;7.63;6.95;;;36.90;95.10;;;;;;5042054;28;20217;-62
2023/08/21 08:50:30;;;;;;;7.30;6.85;;;36.70;92.80;;;;;;5040060;28;20778;-62
2023/08/21 08:52:58;;;;;;;7.78;7.07;;;37.00;93.80;;;;;;5041725;28;20275;-62
2023/08/21 08:55:25;;;;;;;9.50;8.50;;;36.70;93.00;;;;;;5042213;28;20206;-62
2023/08/21 08:57:53;;;;;;;9.15;8.43;;;36.60;93.50;;;;;;5040618;28;20263;-61
2023/08/21 09:00:21;;;;;;;7.85;7.15;;;36.60;93.00;;;;;;5041402;28;20226;-61
2023/08/21 09:02:50;;;;;;;7.55;7.05;;;37.00;93.20;;;;;;5040488;28;20202;-62
2023/08/21 09:05:18;;;;;;;7.50;7.10;;;37.70;91.00;;;;;;5041813;28;20224;-61
2023/08/21 09:07:45;;;;;;;7.50;6.78;;;37.80;90.70;;;;;;5041224;28;20361;-62
2023/08/21 09:10:16;;;;;;;7.68;6.90;;;37.50;90.70;;;;;;5042050;28;20276;-61
2023/08/21 09:12:46;;;;;;;7.10;6.45;;;37.70;93.00;;;;;;5044359;28;20206;-59
2023/08/21 09:15:13;;;;;;;8.32;7.68;;;37.90;91.90;;;;;;5041967;28;20202;-59
2023/08/21 09:17:40;;;;;;;9.20;7.95;;;37.90;90.00;;;;;;5039465;28;20209;-59
2023/08/21 09:20:10;;;;;;;7.82;7.35;;;37.90;93.00;;;;;;5047904;28;20244;-60
2023/08/21 09:22:38;;;;;;;7.95;7.20;;;38.20;91.80;;;;;;5050664;28;20247;-59
2023/08/21 09:25:09;;;;;;;8.32;7.63;;;38.50;88.80;;;;;;5036492;28;20206;-60
2023/08/21 09:27:36;;;;;;;7.70;7.13;;;38.60;90.40;;;;;;5031598;28;20226;-64
2023/08/21 09:30:05;;;;;;;7.32;6.90;;;38.20;91.50;;;;;;5031196;28;20284;-66
2023/08/21 09:32:33;;;;;;;8.48;7.40;;;38.60;91.10;;;;;;5030811;28;20202;-62
2023/08/21 09:35:00;;;;;;;8.00;7.25;;;38.10;91.90;;;;;;5037252;28;20198;-62
2023/08/21 09:37:30;;;;;;;8.00;7.28;;;38.40;88.20;;;;;;5041051;28;20271;-63
2023/08/21 09:40:06;;;;;;;9.23;7.47;;;38.30;92.90;;;;;;5043364;28;20249;-62
2023/08/21 09:42:33;;;;;;;8.23;7.72;;;37.90;91.00;;;;;;5050413;28;20627;-64
2023/08/21 09:45:04;;;;;;;9.25;8.75;;;38.00;91.70;;;;;;5050683;28;20614;-63
2023/08/21 09:47:32;;;;;;;10.70;9.80;;;38.10;93.30;;;;;;5050656;28;20221;-63
2023/08/21 09:50:00;;;;;;;9.73;9.02;;;38.10;94.10;;;;;;5050651;28;20221;-64
2023/08/21 09:52:27;;;;;;;9.77;9.10;;;38.40;94.10;;;;;;5045256;28;21013;-63
2023/08/21 09:54:56;;;;;;;9.55;8.80;;;38.60;95.40;;;;;;5041658;28;20259;-60
2023/08/21 09:57:25;;;;;;;11.25;10.38;;;39.00;94.00;;;;;;5050671;28;20552;-63
2023/08/21 09:59:54;;;;;;;10.77;9.73;;;39.10;94.10;;;;;;5050671;28;20275;-61
2023/08/21 10:02:21;;;;;;;9.75;9.25;;;38.60;94.30;;;;;;5050494;28;20205;-62
2023/08/21 10:04:50;;;;;;;11.02;10.07;;;38.10;94.70;;;;;;5050935;28;20279;-61
2023/08/21 10:07:22;;;;;;;11.80;10.65;;;38.10;95.00;;;;;;5035145;28;20691;-61
2023/08/21 10:09:49;;;;;;;11.15;10.13;;;38.30;97.60;;;;;;5086624;22;20225;-61
2023/08/21 10:12:18;;;;;;;11.15;10.25;;;37.40;95.10;;;;;;5043252;28;20649;-61
2023/08/21 10:14:47;;;;;;;10.48;9.68;;;36.20;97.00;;;;;;5047440;28;20728;-61
2023/08/21 10:17:14;;;;;;;11.10;10.10;;;36.70;96.60;;;;;;5050440;28;20615;-63
2023/08/21 10:19:41;;;;;;;11.60;10.23;;;36.80;96.60;;;;;;5045211;28;20218;-62
2023/08/21 10:22:08;;;;;;;17.15;10.52;;;36.90;96.90;;;;;;5025378;28;20202;-59
2023/08/21 10:24:37;;;;;;;10.73;9.80;;;36.70;97.10;;;;;;5037693;28;20202;-63
2023/08/21 10:27:07;;;;;;;10.23;9.60;;;36.80;97.50;;;;;;5043154;28;22185;-59
2023/08/21 10:29:34;;;;;;;10.13;9.25;;;36.90;97.20;;;;;;5030800;28;20280;-62
2023/08/21 10:32:04;;;;;;;11.77;10.73;;;36.50;97.10;;;;;;5040185;28;20205;-62
2023/08/21 10:34:37;;;;;;;10.20;9.23;;;35.80;97.70;;;;;;5033787;28;20202;-57
2023/08/21 10:37:10;;;;;;;9.38;8.63;;;36.20;97.60;;;;;;5039438;28;20200;-58
2023/08/21 10:39:39;;;;;;;8.88;8.48;;;36.30;96.40;;;;;;5020486;28;20322;-62
2023/08/21 10:42:09;;;;;;;10.40;9.60;;;36.60;96.40;;;;;;5020552;28;20205;-55
2023/08/21 10:44:59;;;;;;;9.57;8.93;;;36.60;95.90;;;;;;5023825;28;20680;-55
2023/08/21 10:47:34;;;;;;;8.52;8.02;;;36.90;95.90;;;;;;5029332;28;20225;-55
2023/08/21 10:50:03;;;;;;;9.85;8.98;;;37.20;95.40;;;;;;5029263;28;20272;-56
2023/08/21 10:52:33;;;;;;;13.95;9.77;;;37.30;94.50;;;;;;5025471;28;20282;-55
2023/08/21 10:55:03;;;;;;;9.38;8.77;;;37.10;95.40;;;;;;5043312;28;20202;-54
2023/08/21 10:57:32;;;;;;;8.88;8.23;;;36.90;95.50;;;;;;5033605;28;20198;-56
2023/08/21 11:00:00;;;;;;;9.43;8.75;;;36.10;96.70;;;;;;5026402;28;20599;-59
2023/08/21 11:02:29;;;;;;;8.70;8.10;;;35.80;97.50;;;;;;5028561;28;20586;-58
2023/08/21 11:04:58;;;;;;;10.23;9.52;;;35.30;98.30;;;;;;5023906;28;20290;-59
2023/08/21 11:07:25;;;;;;;9.73;8.93;;;34.70;99.90;;;;;;5036408;28;20265;-60
2023/08/21 11:09:52;;;;;;;10.00;9.27;;;34.60;99.70;;;;;;5020958;28;20249;-60
2023/08/21 11:12:23;;;;;;;11.35;10.32;;;34.20;99.30;;;;;;5020347;28;20230;-61
2023/08/21 11:14:50;;;;;;;10.57;9.57;;;34.20;99.50;;;;;;5033451;28;20202;-58
2023/08/21 11:17:18;;;;;;;9.57;9.02;;;34.20;99.80;;;;;;5022141;28;20268;-59
2023/08/21 11:19:46;;;;;;;9.82;9.20;;;34.10;99.90;;;;;;5018943;28;20230;-60
2023/08/21 11:22:14;;;;;;;10.52;9.60;;;34.00;99.90;;;;;;5020783;28;20656;-59
2023/08/21 11:24:43;;;;;;;11.23;9.85;;;34.00;99.90;;;;;;5020555;28;20365;-61
2023/08/21 11:27:12;;;;;;;9.55;8.85;;;33.80;99.90;;;;;;5030123;28;20275;-63
2023/08/21 11:29:40;;;;;;;9.90;9.20;;;33.60;99.90;;;;;;5044648;28;20228;-61
2023/08/21 11:32:12;;;;;;;10.50;9.68;;;33.50;99.90;;;;;;5052929;28;20322;-60
2023/08/21 11:34:40;;;;;;;10.90;10.10;;;33.30;99.90;;;;;;5052931;28;20232;-60
2023/08/21 11:37:08;;;;;;;10.13;9.50;;;33.20;99.90;;;;;;5026175;28;20199;-61
2023/08/21 11:39:45;;;;;;;10.18;9.10;;;33.20;99.90;;;;;;5030322;28;20265;-60
2023/08/21 11:42:13;;;;;;;12.48;10.07;;;33.10;99.90;;;;;;5023953;28;20579;-61
2023/08/21 11:44:48;;;;;;;10.80;9.88;;;33.20;99.90;;;;;;5022325;28;20285;-62
2023/08/21 11:47:16;;;;;;;10.15;9.38;;;33.10;99.90;;;;;;5028181;28;20236;-63
2023/08/21 11:49:44;;;;;;;10.77;9.57;;;33.20;99.90;;;;;;5033008;28;20226;-61
2023/08/21 11:52:12;;;;;;;9.93;9.00;;;33.10;99.90;;;;;;5029602;28;20716;-60
2023/08/21 11:54:41;;;;;;;9.95;9.10;;;32.90;99.90;;;;;;5029804;28;20202;-61
2023/08/21 11:57:14;;;;;;;10.90;9.75;;;33.00;99.90;;;;;;5019446;28;20577;-60
2023/08/21 11:59:41;;;;;;;13.45;10.50;;;32.90;99.90;;;;;;5019693;28;20332;-59
2023/08/21 12:02:14;;;;;;;10.30;9.32;;;32.50;99.90;;;;;;5022964;28;20650;-60
2023/08/21 12:04:41;;;;;;;10.45;9.60;;;32.40;99.90;;;;;;5015158;28;20283;-58
2023/08/21 12:07:08;;;;;;;10.23;9.52;;;32.60;99.90;;;;;;5016384;28;20461;-60
2023/08/21 12:09:35;;;;;;;9.35;8.73;;;32.60;99.90;;;;;;5018321;28;20235;-56
2023/08/21 12:12:03;;;;;;;9.18;8.45;;;32.40;99.90;;;;;;5021254;28;20206;-61
2023/08/21 12:14:31;;;;;;;10.68;9.75;;;32.30;99.90;;;;;;5019996;28;20299;-61
2023/08/21 12:16:58;;;;;;;10.60;9.80;;;32.40;99.90;;;;;;5020523;28;20701;-58
2023/08/21 12:19:25;;;;;;;8.38;7.97;;;32.40;99.90;;;;;;5019912;28;20583;-65
2023/08/21 12:21:52;;;;;;;10.00;8.65;;;32.50;99.90;;;;;;5038695;28;20628;-63
2023/08/21 12:24:19;;;;;;;9.77;9.00;;;32.40;99.90;;;;;;5030571;28;20293;-61
2023/08/21 12:26:46;;;;;;;12.93;9.52;;;32.30;99.90;;;;;;5033904;28;20737;-62
2023/08/21 12:29:13;;;;;;;8.73;8.32;;;32.40;99.90;;;;;;5030574;28;20203;-60
2023/08/21 12:31:42;;;;;;;9.75;9.00;;;32.40;99.90;;;;;;5030427;28;20195;-61
2023/08/21 12:34:08;;;;;;;8.52;7.72;;;32.50;99.90;;;;;;5025561;28;20200;-60
2023/08/21 12:36:37;;;;;;;8.25;7.70;;;32.50;99.90;;;;;;5021783;28;20272;-61
2023/08/21 12:39:05;;;;;;;9.82;8.13;;;32.50;99.90;;;;;;5021954;28;20194;-61
2023/08/21 12:41:32;;;;;;;9.70;8.88;;;32.40;99.90;;;;;;5022212;28;20252;-61
2023/08/21 12:43:59;;;;;;;8.13;7.35;;;32.40;99.90;;;;;;5021117;28;20554;-64